createdAt,value
2023-05-06T00:01:56.282Z,98954.16
2023-05-06T00:04:24.421Z,98946.53
2023-05-06T00:06:52.828Z,98944.94
2023-05-06T00:09:24.005Z,98955.63
2023-05-06T00:11:51.969Z,98986.56
2023-05-06T00:14:19.700Z,99002.63
2023-05-06T00:16:47.525Z,99037.19
2023-05-06T00:19:15.489Z,99042.19
2023-05-06T00:21:43.156Z,99053.78
2023-05-06T00:24:11.361Z,99061.84
2023-05-06T00:26:40.438Z,99083.78
2023-05-06T00:29:08.124Z,99099.25
2023-05-06T00:31:36.030Z,99109.13
2023-05-06T00:34:03.697Z,99125.03
2023-05-06T00:36:31.651Z,99140.97
2023-05-06T00:38:59.384Z,99142.41
2023-05-06T00:41:27.210Z,99145.69
2023-05-06T00:43:56.262Z,99150.13
2023-05-06T00:46:24.056Z,99153.53
2023-05-06T00:48:52.386Z,99169.78
2023-05-06T00:51:20.054Z,99166.81
2023-05-06T00:53:47.958Z,99173.88
2023-05-06T00:56:19.965Z,99184.78
2023-05-06T00:58:49.473Z,99187.41
2023-05-06T01:01:18.458Z,99199.09
2023-05-06T01:03:47.090Z,99200.75
2023-05-06T01:06:18.878Z,99203.38
2023-05-06T01:08:56.289Z,99207.44
2023-05-06T01:11:32.715Z,99213.94
2023-05-06T01:14:03.868Z,99214.38
2023-05-06T01:16:36.460Z,99226.06
2023-05-06T01:19:09.853Z,99221.06
2023-05-06T01:21:41.582Z,99217.06
2023-05-06T01:24:10.777Z,99216.72
2023-05-06T01:26:38.469Z,99220.56
2023-05-06T01:29:06.433Z,99224.19
2023-05-06T01:31:52.052Z,99228.03
2023-05-06T01:34:28.958Z,99225.44
2023-05-06T01:37:03.823Z,99225.06
2023-05-06T01:39:34.480Z,99222.69
2023-05-06T01:42:03.912Z,99214.94
2023-05-06T01:44:35.039Z,99208.91
2023-05-06T01:47:03.396Z,99200.16
2023-05-06T01:49:31.364Z,99197.56
2023-05-06T01:51:59.668Z,99186.81
2023-05-06T01:54:27.436Z,99184.78
2023-05-06T01:56:56.533Z,99181.94
2023-05-06T01:59:24.200Z,99176.50
2023-05-06T02:01:51.998Z,99178.53
2023-05-06T02:04:19.774Z,99170.13
2023-05-06T02:06:47.417Z,99178.53
2023-05-06T02:09:15.128Z,99181.38
2023-05-06T02:11:42.856Z,99184.19
2023-05-06T02:14:11.843Z,99179.22
2023-05-06T02:16:39.558Z,99174.34
2023-05-06T02:19:07.342Z,99171.50
2023-05-06T02:21:35.051Z,99172.97
2023-05-06T02:24:02.744Z,99167.72
2023-05-06T02:26:30.573Z,99165.38
2023-05-06T02:28:58.269Z,99139.81
2023-05-06T02:31:27.476Z,99125.63
2023-05-06T02:33:55.260Z,99115.53
2023-05-06T02:36:22.913Z,99114.28
2023-05-06T02:38:50.608Z,99127.13
2023-05-06T02:41:18.252Z,99132.34
2023-05-06T02:43:45.959Z,99148.00
2023-05-06T02:46:13.674Z,99151.84
2023-05-06T02:48:43.025Z,99163.31
2023-05-06T02:51:11.924Z,99169.34
2023-05-06T02:53:39.490Z,99177.16
2023-05-06T02:56:07.488Z,99175.34
2023-05-06T02:58:35.185Z,99188.97
2023-05-06T03:01:02.960Z,99196.81
2023-05-06T03:03:30.651Z,99194.22
2023-05-06T03:05:59.637Z,99192.63
2023-05-06T03:08:27.372Z,99193.84
2023-05-06T03:10:55.072Z,99200.44
2023-05-06T03:13:23.037Z,99211.09
2023-05-06T03:15:53.718Z,99202.13
2023-05-06T03:18:21.443Z,99213.38
2023-05-06T03:20:50.602Z,99219.25
2023-05-06T03:23:19.642Z,99233.69
2023-05-06T03:25:47.389Z,99238.53
2023-05-06T03:28:15.106Z,99236.13
2023-05-06T03:30:42.868Z,99231.81
2023-05-06T03:33:10.756Z,99238.38
2023-05-06T03:35:38.596Z,99235.44
2023-05-06T03:38:06.327Z,99236.22
2023-05-06T03:40:35.483Z,99241.66
2023-05-06T03:43:03.195Z,99246.28
2023-05-06T03:45:30.897Z,99240.84
2023-05-06T03:47:58.737Z,99248.91
2023-05-06T03:50:26.855Z,99252.16
2023-05-06T03:52:54.750Z,99245.56
2023-05-06T03:55:22.422Z,99215.25
2023-05-06T03:57:51.444Z,99236.16
2023-05-06T04:00:19.144Z,99236.34
2023-05-06T04:02:46.900Z,99244.41
2023-05-06T04:05:14.713Z,99247.66
2023-05-06T04:07:42.387Z,99251.47
2023-05-06T04:10:10.919Z,99250.47
2023-05-06T04:12:38.694Z,99246.25
2023-05-06T04:15:09.368Z,99241.84
2023-05-06T04:17:37.251Z,99243.66
2023-05-06T04:20:07.041Z,99228.44
2023-05-06T04:22:34.759Z,99244.25
2023-05-06T04:25:02.535Z,99250.47
2023-05-06T04:27:32.111Z,99250.25
2023-05-06T04:29:59.988Z,99252.06
2023-05-06T04:32:29.027Z,99246.72
2023-05-06T04:34:57.232Z,99268.09
2023-05-06T04:37:25.037Z,99267.09
2023-05-06T04:39:52.707Z,99264.47
2023-05-06T04:42:20.348Z,99261.22
2023-05-06T04:44:48.816Z,99280.66
2023-05-06T04:47:17.064Z,99257.31
2023-05-06T04:49:46.130Z,99247.38
2023-05-06T04:52:13.721Z,99236.88
2023-05-06T04:54:42.168Z,99220.91
2023-05-06T04:57:11.524Z,99182.69
2023-05-06T04:59:39.228Z,99140.16
2023-05-06T05:02:06.991Z,99092.72
2023-05-06T05:04:34.758Z,99066.25
2023-05-06T05:07:03.886Z,99038.97
2023-05-06T05:09:31.507Z,98996.06
2023-05-06T05:11:59.245Z,98936.28
2023-05-06T05:14:26.900Z,98879.81
2023-05-06T05:16:54.667Z,98842.47
2023-05-06T05:19:22.461Z,98780.69
2023-05-06T05:21:50.149Z,98718.22
2023-05-06T05:24:19.212Z,98661.94
2023-05-06T05:26:46.868Z,98621.34
2023-05-06T05:29:14.591Z,98595.22
2023-05-06T05:31:42.333Z,98542.06
2023-05-06T05:34:10.326Z,98513.09
2023-05-06T05:36:38.027Z,98502.88
2023-05-06T05:39:05.767Z,98466.88
2023-05-06T05:41:34.780Z,98463.47
2023-05-06T05:44:02.814Z,98426.38
2023-05-06T05:46:30.678Z,98424.41
2023-05-06T05:48:58.407Z,98417.13
2023-05-06T05:51:26.053Z,98413.72
2023-05-06T05:53:53.713Z,98395.59
2023-05-06T05:56:21.461Z,98364.59
2023-05-06T05:58:50.519Z,98353.28
2023-05-06T06:01:18.765Z,98381.72
2023-05-06T06:03:46.704Z,98387.84
2023-05-06T06:06:14.643Z,98365.53
2023-05-06T06:08:43.745Z,98366.13
2023-05-06T06:11:11.400Z,98368.16
2023-05-06T06:13:39.130Z,98362.31
2023-05-06T06:16:08.828Z,98377.13
2023-05-06T06:18:36.558Z,98365.16
2023-05-06T06:21:04.318Z,98387.03
2023-05-06T06:23:32.028Z,98378.25
2023-05-06T06:25:59.979Z,98385.84
2023-05-06T06:28:27.665Z,98403.28
2023-05-06T06:30:55.481Z,98374.59
2023-05-06T06:33:24.483Z,98356.41
2023-05-06T06:35:52.231Z,98383.66
2023-05-06T06:38:19.889Z,98412.09
2023-05-06T06:40:47.572Z,98440.84
2023-05-06T06:43:15.419Z,98455.03
2023-05-06T06:45:43.159Z,98437.88
2023-05-06T06:48:11.382Z,98457.84
2023-05-06T06:50:40.635Z,98459.41
2023-05-06T06:53:08.261Z,98450.72
2023-05-06T06:55:36.237Z,98471.19
2023-05-06T06:58:04.342Z,98472.91
2023-05-06T07:00:31.993Z,98487.94
2023-05-06T07:02:59.684Z,98528.84
2023-05-06T07:05:27.817Z,98563.47
2023-05-06T07:07:56.973Z,98570.59
2023-05-06T07:10:24.674Z,98573.44
2023-05-06T07:12:52.409Z,98595.56
2023-05-06T07:15:20.332Z,98691.94
2023-05-06T07:17:48.079Z,98725.69
2023-05-06T07:20:16.205Z,98729.53
2023-05-06T07:22:45.718Z,98745.72
2023-05-06T07:25:15.492Z,98742.94
2023-05-06T07:27:43.206Z,98699.13
2023-05-06T07:30:12.019Z,98719.91
2023-05-06T07:32:40.989Z,98718.69
2023-05-06T07:35:10.016Z,98719.31
2023-05-06T07:37:37.974Z,98761.69
2023-05-06T07:40:06.947Z,98801.69
2023-05-06T07:42:36.101Z,98837.25
2023-05-06T07:45:03.894Z,98886.72
2023-05-06T07:47:33.081Z,98959.44
2023-05-06T07:50:00.970Z,99035.66
2023-05-06T07:52:28.856Z,98990.78
2023-05-06T07:54:56.508Z,99024.56
2023-05-06T07:57:24.210Z,99085.63
2023-05-06T07:59:53.818Z,99079.94
2023-05-06T08:02:21.799Z,99093.13
2023-05-06T08:04:51.612Z,99115.03
2023-05-06T08:07:20.063Z,99155.63
2023-05-06T08:09:47.807Z,99195.72
2023-05-06T08:12:15.833Z,99215.81
2023-05-06T08:14:43.472Z,99208.97
2023-05-06T08:17:14.117Z,99200.53
2023-05-06T08:19:41.946Z,99203.75
2023-05-06T08:22:10.098Z,99218.50
2023-05-06T08:24:37.817Z,99287.44
2023-05-06T08:27:05.455Z,99302.47
2023-05-06T08:29:33.135Z,99251.03
2023-05-06T08:32:01.535Z,99201.84
2023-05-06T08:34:30.921Z,99207.16
2023-05-06T08:36:58.604Z,99244.09
2023-05-06T08:39:27.844Z,99276.34
2023-05-06T08:41:58.960Z,99276.00
2023-05-06T08:44:26.950Z,99300.63
2023-05-06T08:46:54.693Z,99313.31
2023-05-06T08:49:22.625Z,99344.97
2023-05-06T08:51:53.182Z,99354.75
2023-05-06T08:54:24.810Z,99395.47
2023-05-06T08:56:56.395Z,99382.13
2023-05-06T08:59:26.749Z,99462.63
2023-05-06T09:01:54.512Z,99472.03
2023-05-06T09:04:22.379Z,99505.50
2023-05-06T09:06:51.476Z,99494.97
2023-05-06T09:09:19.230Z,99518.41
2023-05-06T09:11:48.281Z,99630.09
2023-05-06T09:14:17.924Z,99544.06
2023-05-06T09:16:47.831Z,99534.63
2023-05-06T09:19:16.242Z,99656.06
2023-05-06T09:21:44.855Z,99752.63
2023-05-06T09:24:15.996Z,99720.53
2023-05-06T09:26:45.626Z,99700.13
2023-05-06T09:29:13.985Z,99744.16
2023-05-06T09:31:42.261Z,99816.22
2023-05-06T09:34:09.915Z,99805.09
2023-05-06T09:36:37.969Z,99822.72
2023-05-06T09:39:06.159Z,99754.47
2023-05-06T09:41:35.197Z,99747.91
2023-05-06T09:44:03.105Z,99773.56
2023-05-06T09:46:31.363Z,99890.69
2023-05-06T09:48:59.972Z,99890.69
2023-05-06T09:51:28.815Z,99891.25
2023-05-06T09:53:57.915Z,99875.91
2023-05-06T09:56:26.856Z,99943.19
2023-05-06T09:58:56.820Z,99886.22
2023-05-06T10:01:35.428Z,99921.16
2023-05-06T10:04:07.087Z,99911.31
2023-05-06T10:06:39.304Z,99947.22
2023-05-06T10:09:07.959Z,99959.75
2023-05-06T10:11:36.848Z,99936.00
2023-05-06T10:14:07.072Z,99976.41
2023-05-06T10:16:35.851Z,99978.53
2023-05-06T10:19:05.976Z,100017.81
2023-05-06T10:21:37.025Z,100060.09
2023-05-06T10:24:09.065Z,99972.03
2023-05-06T10:26:38.057Z,99939.13
2023-05-06T10:29:10.705Z,99871.41
2023-05-06T10:31:47.301Z,99909.03
2023-05-06T10:34:19.433Z,99919.34
2023-05-06T10:36:48.595Z,100029.50
2023-05-06T10:39:16.828Z,99892.31
2023-05-06T10:41:45.374Z,99939.78
2023-05-06T10:44:14.498Z,100043.25
2023-05-06T10:46:59.720Z,100075.63
2023-05-06T10:49:29.061Z,100143.56
2023-05-06T10:52:14.026Z,100170.72
2023-05-06T10:54:59.678Z,100214.09
2023-05-06T10:57:41.154Z,100219.19
2023-05-06T11:00:13.057Z,100218.81
2023-05-06T11:02:41.162Z,100200.25
2023-05-06T11:05:10.770Z,100219.13
2023-05-06T11:07:38.764Z,100233.84
2023-05-06T11:10:08.168Z,100179.31
2023-05-06T11:12:46.920Z,100128.94
2023-05-06T11:15:26.460Z,100186.63
2023-05-06T11:17:55.689Z,100105.34
2023-05-06T11:20:25.625Z,100201.00
2023-05-06T11:22:54.168Z,100208.88
2023-05-06T11:25:47.119Z,100220.63
2023-05-06T11:28:16.507Z,100319.44
2023-05-06T11:30:55.255Z,100400.75
2023-05-06T11:33:26.084Z,100406.91
2023-05-06T11:35:54.288Z,100454.97
2023-05-06T11:38:22.041Z,100506.41
2023-05-06T11:40:50.188Z,100687.53
2023-05-06T11:43:18.088Z,100723.81
2023-05-06T11:45:49.026Z,100661.38
2023-05-06T11:48:17.927Z,100592.66
2023-05-06T11:50:47.214Z,100476.94
2023-05-06T11:53:16.803Z,100575.81
2023-05-06T11:55:45.220Z,100562.47
2023-05-06T11:58:14.363Z,100608.28
2023-05-06T12:00:51.428Z,100644.19
2023-05-06T12:03:20.105Z,100731.81
2023-05-06T12:05:48.939Z,100604.19
2023-05-06T12:08:26.807Z,100557.81
2023-05-06T12:10:57.027Z,100507.22
2023-05-06T12:13:25.049Z,100409.66
2023-05-06T12:15:55.457Z,100427.25
2023-05-06T12:18:24.788Z,100696.13
2023-05-06T12:20:54.850Z,100657.47
2023-05-06T12:23:22.932Z,100695.03
2023-05-06T12:26:02.341Z,100527.22
2023-05-06T12:28:30.160Z,100767.81
2023-05-06T12:30:59.250Z,100630.59
2023-05-06T12:33:27.012Z,100829.00
2023-05-06T12:35:57.020Z,100886.88
2023-05-06T12:38:25.296Z,100813.66
2023-05-06T12:40:55.349Z,100950.50
2023-05-06T12:43:29.941Z,100695.56
2023-05-06T12:46:06.302Z,100949.09
2023-05-06T12:48:34.357Z,100870.59
2023-05-06T12:51:02.367Z,100815.78
2023-05-06T12:53:35.243Z,100922.25
2023-05-06T12:56:02.999Z,100874.16
2023-05-06T12:58:30.747Z,100770.69
2023-05-06T13:00:58.463Z,100693.56
2023-05-06T13:03:27.690Z,100663.84
2023-05-06T13:05:55.394Z,100574.41
2023-05-06T13:08:23.143Z,100580.06
2023-05-06T13:10:50.758Z,100597.28
2023-05-06T13:13:18.615Z,100513.09
2023-05-06T13:15:46.487Z,100365.72
2023-05-06T13:18:14.225Z,100407.69
2023-05-06T13:20:43.323Z,100431.13
2023-05-06T13:23:11.017Z,100424.00
2023-05-06T13:25:51.708Z,100597.81
2023-05-06T13:28:26.981Z,100527.97
2023-05-06T13:30:54.634Z,100676.56
2023-05-06T13:33:22.384Z,100892.63
2023-05-06T13:35:51.495Z,100755.13
2023-05-06T13:38:19.167Z,100896.31
2023-05-06T13:40:47.978Z,101148.34
2023-05-06T13:43:15.595Z,101115.47
2023-05-06T13:45:44.055Z,101186.53
2023-05-06T13:48:11.818Z,101199.31
2023-05-06T13:50:39.724Z,101061.78
2023-05-06T13:53:08.801Z,100988.41
2023-05-06T13:55:36.566Z,101072.47
2023-05-06T13:58:04.958Z,101202.03
2023-05-06T14:00:32.924Z,101023.38
2023-05-06T14:03:00.643Z,101138.50
2023-05-06T14:05:28.286Z,101197.34
2023-05-06T14:07:56.005Z,101242.13
2023-05-06T14:10:25.061Z,101150.63
2023-05-06T14:12:52.826Z,101307.63
2023-05-06T14:15:20.752Z,101215.75
2023-05-06T14:17:48.530Z,101095.50
2023-05-06T14:20:16.360Z,100999.59
2023-05-06T14:22:45.181Z,100952.91
2023-05-06T14:25:13.387Z,101011.91
2023-05-06T14:27:42.431Z,101105.38
2023-05-06T14:30:10.687Z,101074.91
2023-05-06T14:32:38.498Z,101079.69
2023-05-06T14:35:07.346Z,101089.84
2023-05-06T14:37:35.077Z,100928.22
2023-05-06T14:40:04.409Z,100834.16
2023-05-06T14:42:33.185Z,100826.47
2023-05-06T14:45:02.306Z,100914.25
2023-05-06T14:47:29.995Z,100979.31
2023-05-06T14:49:58.008Z,100960.34
2023-05-06T14:52:25.833Z,101135.91
2023-05-06T14:54:53.766Z,101103.50
2023-05-06T14:57:21.760Z,100966.00
2023-05-06T14:59:49.498Z,100850.97
2023-05-06T15:02:18.768Z,100995.34
2023-05-06T15:04:46.980Z,100984.09
2023-05-06T15:07:14.780Z,100790.97
2023-05-06T15:09:44.040Z,100773.66
2023-05-06T15:12:12.170Z,100813.94
2023-05-06T15:14:39.815Z,100829.88
2023-05-06T15:17:07.789Z,100831.59
2023-05-06T15:19:37.024Z,100648.00
2023-05-06T15:22:04.676Z,100573.31
2023-05-06T15:24:32.434Z,100771.88
2023-05-06T15:27:00.073Z,100646.03
2023-05-06T15:29:27.867Z,100724.97
2023-05-06T15:31:55.642Z,100619.19
2023-05-06T15:34:23.372Z,100770.63
2023-05-06T15:36:53.969Z,100729.94
2023-05-06T15:39:22.066Z,100688.59
2023-05-06T15:41:50.621Z,100592.75
2023-05-06T15:44:20.722Z,100690.75
2023-05-06T15:46:48.822Z,100714.66
2023-05-06T15:51:47.394Z,100790.16
2023-05-06T15:54:18.224Z,100774.13
2023-05-06T15:56:46.305Z,100797.06
2023-05-06T15:59:14.021Z,100800.66
2023-05-06T16:02:24.570Z,100811.97
2023-05-06T16:04:31.466Z,100636.09
2023-05-06T16:06:59.398Z,100709.44
2023-05-06T16:09:28.423Z,100622.47
2023-05-06T16:11:56.088Z,100784.31
2023-05-06T16:14:23.852Z,100593.16
2023-05-06T16:16:51.687Z,100825.19
2023-05-06T16:19:19.456Z,100779.84
2023-05-06T16:21:48.180Z,100769.25
2023-05-06T16:24:16.113Z,100766.53
2023-05-06T16:26:45.297Z,100767.03
2023-05-06T16:29:13.086Z,100772.38
2023-05-06T16:31:40.833Z,100672.13
2023-05-06T16:34:08.586Z,100625.66
2023-05-06T16:36:36.233Z,100650.75
2023-05-06T16:39:06.175Z,100596.09
2023-05-06T16:41:33.861Z,100704.41
2023-05-06T16:44:03.344Z,100539.88
2023-05-06T16:46:31.098Z,100573.41
2023-05-06T16:48:58.907Z,100629.53
2023-05-06T16:51:27.039Z,100649.34
2023-05-06T16:53:54.731Z,100639.25
2023-05-06T16:56:22.709Z,100623.94
2023-05-06T16:58:50.472Z,100571.63
2023-05-06T17:01:19.527Z,100682.00
2023-05-06T17:03:47.240Z,100691.84
2023-05-06T17:06:14.964Z,100691.47
2023-05-06T17:08:42.812Z,100505.44
2023-05-06T17:11:10.469Z,100479.94
2023-05-06T17:13:38.084Z,100453.53
2023-05-06T17:16:06.267Z,100413.50
2023-05-06T17:18:35.426Z,100394.66
2023-05-06T17:21:03.156Z,100363.34
2023-05-06T17:23:30.948Z,100374.22
2023-05-06T17:25:58.613Z,100425.09
2023-05-06T17:28:26.742Z,100380.75
2023-05-06T17:30:54.597Z,100457.75
2023-05-06T17:33:22.833Z,100418.63
2023-05-06T17:35:51.893Z,100361.88
2023-05-06T17:38:19.564Z,100353.69
2023-05-06T17:40:47.287Z,100311.59
2023-05-06T17:43:14.960Z,100224.38
2023-05-06T17:45:42.633Z,100178.44
2023-05-06T17:48:10.441Z,100098.38
2023-05-06T17:50:38.220Z,100081.06
2023-05-06T17:53:07.222Z,100061.69
2023-05-06T17:55:34.975Z,99923.53
2023-05-06T17:58:02.711Z,99784.47
2023-05-06T18:00:30.382Z,99577.25
2023-05-06T18:02:58.167Z,99385.66
2023-05-06T18:05:26.426Z,99249.56
2023-05-06T18:07:54.172Z,99099.09
2023-05-06T18:10:23.486Z,98953.13
2023-05-06T18:12:51.398Z,98840.28
2023-05-06T18:15:19.152Z,98766.41
2023-05-06T18:17:46.878Z,98696.38
2023-05-06T18:20:15.000Z,98667.69
2023-05-06T18:23:00.555Z,98614.34
2023-05-06T18:25:29.692Z,98541.72
2023-05-06T18:27:57.810Z,98532.06
2023-05-06T18:37:15.232Z,98400.03
2023-05-06T18:39:43.552Z,98362.06
2023-05-06T18:42:12.666Z,98356.31
2023-05-06T18:44:40.619Z,98345.75
2023-05-06T18:47:08.451Z,98354.69
2023-05-06T19:21:10.036Z,98836.44
2023-05-06T19:23:37.845Z,98867.78
2023-05-06T19:26:06.709Z,98902.28
2023-05-06T19:28:34.942Z,98917.88
2023-05-06T19:33:34.552Z,98953.69
2023-05-06T19:36:02.395Z,98975.81
2023-05-06T19:38:31.502Z,98986.88
2023-05-06T19:40:59.241Z,98990.06
2023-05-06T19:43:27.050Z,98990.56
2023-05-06T19:45:54.847Z,99019.56
2023-05-06T19:48:23.754Z,99026.16
2023-05-06T19:50:53.787Z,99021.69
2023-05-06T19:53:22.797Z,99021.16
2023-05-06T19:55:52.079Z,99030.31
2023-05-06T19:58:19.804Z,99032.72
2023-05-06T20:00:47.583Z,99010.00
2023-05-06T20:03:15.406Z,99036.97
2023-05-06T20:05:43.183Z,99046.91
2023-05-06T20:08:12.236Z,99060.59
2023-05-06T20:10:39.997Z,99068.00
2023-05-06T20:13:10.715Z,99059.56
2023-05-06T20:15:38.570Z,99062.16
2023-05-06T20:18:07.251Z,99049.50
2023-05-06T20:20:35.987Z,99061.63
2023-05-06T20:23:04.068Z,99053.97
2023-05-06T20:25:32.256Z,99050.03
2023-05-06T20:28:00.284Z,99055.84
2023-05-06T20:30:29.367Z,99033.13
2023-05-06T20:32:57.279Z,99061.34
2023-05-06T20:35:25.647Z,99070.56
2023-05-06T20:37:54.417Z,99066.59
2023-05-06T20:40:22.318Z,99067.13
2023-05-06T20:42:50.059Z,99072.63
2023-05-06T20:45:17.897Z,99048.84
2023-05-06T20:47:47.006Z,99081.59
2023-05-06T20:50:17.161Z,99082.13
2023-05-06T20:52:46.076Z,99079.22
2023-05-06T20:55:15.223Z,99064.94
2023-05-06T20:57:44.134Z,99052.81
2023-05-06T21:00:12.757Z,99055.75
2023-05-06T21:02:41.983Z,99045.44
2023-05-06T21:05:11.893Z,99015.91
2023-05-06T21:07:40.014Z,99014.63
2023-05-06T21:10:08.352Z,98992.19
2023-05-06T21:12:36.302Z,98976.69
2023-05-06T21:15:04.629Z,98966.97
2023-05-06T21:17:32.400Z,98955.09
2023-05-06T21:20:00.375Z,98946.16
2023-05-06T21:22:29.411Z,98943.81
2023-05-06T21:24:57.047Z,98936.16
2023-05-06T21:27:24.814Z,98930.63
2023-05-06T21:29:52.535Z,98929.84
2023-05-06T21:32:20.286Z,98926.94
2023-05-06T21:34:48.013Z,98930.09
2023-05-06T21:37:15.996Z,98932.97
2023-05-06T21:39:45.070Z,98942.44
2023-05-06T21:42:12.772Z,98935.88
2023-05-06T21:44:40.476Z,98943.97
2023-05-06T21:47:08.328Z,98939.22
2023-05-06T21:49:36.094Z,98942.84
2023-05-06T21:52:04.936Z,98932.00
2023-05-06T21:54:32.542Z,98908.13
2023-05-06T21:57:02.247Z,98919.19
2023-05-06T21:59:30.079Z,98910.97
2023-05-06T22:01:57.766Z,98916.19
2023-05-06T22:04:26.297Z,98925.38
2023-05-06T22:06:53.996Z,98919.84
2023-05-06T22:09:22.104Z,98918.78
2023-05-06T22:11:50.401Z,98924.84
2023-05-06T22:14:21.973Z,98919.59
2023-05-06T22:16:52.630Z,98946.41
2023-05-06T22:19:20.370Z,98946.66
2023-05-06T22:21:48.084Z,98950.03
2023-05-06T22:24:15.885Z,98962.13
2023-05-06T22:26:43.570Z,98957.44
2023-05-06T22:29:11.444Z,98961.09
2023-05-06T22:31:40.553Z,98963.97
2023-05-06T22:34:08.360Z,98958.47
2023-05-06T22:36:36.053Z,98964.78
2023-05-06T22:39:03.794Z,98964.78
2023-05-06T22:41:31.801Z,98970.72
2023-05-06T22:44:00.475Z,98952.03
2023-05-06T22:46:28.961Z,98939.66
2023-05-06T22:48:58.038Z,98928.25
2023-05-06T22:51:25.660Z,98905.94
2023-05-06T22:53:53.275Z,98888.84
2023-05-06T22:56:21.131Z,98865.38
2023-05-06T22:58:48.835Z,98847.63
2023-05-06T23:01:16.598Z,98806.34
2023-05-06T23:03:44.415Z,98741.03
2023-05-06T23:06:13.509Z,98703.28
2023-05-06T23:08:41.196Z,98684.38
2023-05-06T23:11:08.815Z,98697.72
2023-05-06T23:13:36.968Z,98679.06
2023-05-06T23:16:05.211Z,98668.88
2023-05-06T23:18:32.895Z,98666.00
2023-05-06T23:21:00.539Z,98677.31
2023-05-06T23:23:30.053Z,98701.75
2023-05-06T23:25:57.651Z,98725.91
2023-05-06T23:28:25.475Z,98744.47
2023-05-06T23:30:53.282Z,98745.75
2023-05-06T23:33:20.979Z,98725.28
2023-05-06T23:35:48.602Z,98734.72
2023-05-06T23:38:16.309Z,98705.88
2023-05-06T23:40:45.825Z,98708.25
2023-05-06T23:43:13.430Z,98731.13
2023-05-06T23:45:41.228Z,98755.31
2023-05-06T23:48:08.936Z,98774.44
2023-05-06T23:50:36.622Z,98785.19
2023-05-06T23:53:04.387Z,98754.84
2023-05-06T23:55:32.290Z,98790.44
2023-05-06T23:58:01.343Z,98778.56
